RYR4899 LIBD-LDDU
Flight info
| Callsign | RYR4899 |
|---|---|
| Flight time | 0h 35m |
| Altitude | 20000 |
| Route | BANAV DCT AIOSA |
| Aircraft | B738/M-SADE3FGHIJ1J7LP2RWXY/SB1D1G1 |
Departure
| Time | 2026-04-30 12:53 |
|---|---|
| Airport | Bari Karol Wojtyła International Airport (LIBD) |
Arrival
| Time | 2026-04-30 13:28 |
|---|---|
| Airport | Dubrovnik Ruđer Bošković Airport (LDDU) |
| Time | Latitude | Longitude | Altitude | Speed | Heading |
|---|---|---|---|---|---|
| 2026-04-30 12:21 | 41.13577 | 16.76512 | 135 ft | 0 kts | 159° |
| 2026-04-30 12:45 | 41.13585 | 16.76508 | 135 ft | 3 kts | 159° |
| 2026-04-30 12:45 | 41.13602 | 16.76499 | 135 ft | 3 kts | 159° |
| 2026-04-30 12:46 | 41.13619 | 16.76491 | 135 ft | 3 kts | 159° |
| 2026-04-30 12:46 | 41.13635 | 16.76483 | 135 ft | 2 kts | 159° |
| 2026-04-30 12:46 | 41.13651 | 16.76475 | 135 ft | 2 kts | 159° |
| 2026-04-30 12:46 | 41.13657 | 16.76472 | 135 ft | 0 kts | 159° |
| 2026-04-30 12:48 | 41.13650 | 16.76477 | 135 ft | 3 kts | 147° |
| 2026-04-30 12:48 | 41.13650 | 16.76504 | 135 ft | 3 kts | 70° |
| 2026-04-30 12:48 | 41.13664 | 16.76526 | 135 ft | 3 kts | 38° |
| 2026-04-30 12:49 | 41.13687 | 16.76542 | 135 ft | 4 kts | 25° |
| 2026-04-30 12:49 | 41.13721 | 16.76561 | 135 ft | 6 kts | 15° |
| 2026-04-30 12:49 | 41.13774 | 16.76550 | 135 ft | 9 kts | 345° |
| 2026-04-30 12:49 | 41.13822 | 16.76616 | 133 ft | 13 kts | 69° |
| 2026-04-30 12:50 | 41.13861 | 16.76751 | 124 ft | 19 kts | 69° |
| 2026-04-30 12:50 | 41.13909 | 16.76922 | 124 ft | 20 kts | 69° |
| 2026-04-30 12:50 | 41.13957 | 16.77089 | 122 ft | 19 kts | 69° |
| 2026-04-30 12:50 | 41.14002 | 16.77250 | 121 ft | 18 kts | 70° |
| 2026-04-30 12:51 | 41.14044 | 16.77375 | 119 ft | 13 kts | 46° |
| 2026-04-30 12:51 | 41.14120 | 16.77411 | 118 ft | 11 kts | 14° |
| 2026-04-30 12:51 | 41.14196 | 16.77413 | 114 ft | 10 kts | 339° |
| 2026-04-30 12:51 | 41.14224 | 16.77370 | 116 ft | 6 kts | 259° |
| 2026-04-30 12:52 | 41.14208 | 16.77315 | 115 ft | 6 kts | 249° |
| 2026-04-30 12:52 | 41.14171 | 16.77188 | 117 ft | 38 kts | 249° |
| 2026-04-30 12:52 | 41.14000 | 16.76583 | 121 ft | 100 kts | 249° |
| 2026-04-30 12:52 | 41.13694 | 16.75500 | 140 ft | 149 kts | 249° |
| 2026-04-30 12:53 | 41.13283 | 16.74104 | 478 ft | 165 kts | 252° |
| 2026-04-30 12:53 | 41.12896 | 16.72672 | 1257 ft | 165 kts | 256° |
| 2026-04-30 12:53 | 41.12492 | 16.71251 | 2004 ft | 163 kts | 257° |
| 2026-04-30 12:53 | 41.12091 | 16.69832 | 2600 ft | 167 kts | 257° |
| 2026-04-30 12:54 | 41.11668 | 16.68333 | 3073 ft | 178 kts | 256° |
| 2026-04-30 12:54 | 41.11229 | 16.66784 | 3566 ft | 189 kts | 256° |
| 2026-04-30 12:54 | 41.10738 | 16.65044 | 3788 ft | 212 kts | 255° |
| 2026-04-30 12:54 | 41.10202 | 16.63156 | 4099 ft | 223 kts | 254° |
| 2026-04-30 12:55 | 41.09648 | 16.61222 | 4704 ft | 224 kts | 254° |
| 2026-04-30 12:55 | 41.09116 | 16.59290 | 5432 ft | 221 kts | 262° |
| 2026-04-30 12:55 | 41.09216 | 16.57338 | 6117 ft | 212 kts | 299° |
| 2026-04-30 12:55 | 41.10141 | 16.55865 | 6898 ft | 211 kts | 327° |
| 2026-04-30 12:56 | 41.11511 | 16.55177 | 7647 ft | 215 kts | 353° |
| 2026-04-30 12:56 | 41.13015 | 16.55449 | 8378 ft | 224 kts | 16° |
| 2026-04-30 12:56 | 41.14483 | 16.56202 | 9154 ft | 229 kts | 17° |
| 2026-04-30 12:56 | 41.15963 | 16.56978 | 9859 ft | 235 kts | 17° |
| 2026-04-30 12:57 | 41.17502 | 16.57784 | 10556 ft | 240 kts | 17° |
| 2026-04-30 12:57 | 41.19061 | 16.58597 | 11277 ft | 242 kts | 17° |
| 2026-04-30 12:57 | 41.20635 | 16.59416 | 12021 ft | 244 kts | 16° |
| 2026-04-30 12:57 | 41.22219 | 16.60255 | 12774 ft | 247 kts | 21° |
| 2026-04-30 12:58 | 41.23563 | 16.61750 | 13429 ft | 265 kts | 53° |
| 2026-04-30 12:58 | 41.24202 | 16.64156 | 13761 ft | 294 kts | 79° |
| 2026-04-30 12:58 | 41.24427 | 16.66968 | 13976 ft | 319 kts | 82° |
| 2026-04-30 12:58 | 41.24650 | 16.70020 | 14166 ft | 344 kts | 81° |
| 2026-04-30 12:59 | 41.24913 | 16.73291 | 14325 ft | 367 kts | 81° |
| 2026-04-30 12:59 | 41.25350 | 16.76684 | 14735 ft | 376 kts | 68° |
| 2026-04-30 12:59 | 41.26647 | 16.79660 | 15350 ft | 372 kts | 43° |
| 2026-04-30 12:59 | 41.28603 | 16.81825 | 16124 ft | 363 kts | 24° |
| 2026-04-30 13:00 | 41.30893 | 16.83113 | 16979 ft | 354 kts | 13° |
| 2026-04-30 13:00 | 41.33213 | 16.84164 | 17863 ft | 352 kts | 12° |
| 2026-04-30 13:00 | 41.35536 | 16.85223 | 18658 ft | 353 kts | 12° |
| 2026-04-30 13:00 | 41.37853 | 16.86306 | 19386 ft | 353 kts | 12° |
| 2026-04-30 13:01 | 41.40177 | 16.87410 | 19895 ft | 356 kts | 12° |
| 2026-04-30 13:01 | 41.42506 | 16.88527 | 20137 ft | 356 kts | 12° |
| 2026-04-30 13:01 | 41.44841 | 16.89651 | 20117 ft | 356 kts | 12° |
| 2026-04-30 13:01 | 41.47167 | 16.90772 | 20129 ft | 354 kts | 12° |
| 2026-04-30 13:02 | 41.49481 | 16.91886 | 20133 ft | 353 kts | 12° |
| 2026-04-30 13:02 | 41.51792 | 16.92997 | 20134 ft | 353 kts | 12° |
| 2026-04-30 13:02 | 41.54111 | 16.94059 | 20133 ft | 351 kts | 9° |
| 2026-04-30 13:02 | 41.56449 | 16.94963 | 20133 ft | 349 kts | 8° |
| 2026-04-30 13:03 | 41.58797 | 16.95821 | 20136 ft | 349 kts | 7° |
| 2026-04-30 13:03 | 41.61137 | 16.96677 | 20134 ft | 350 kts | 8° |
| 2026-04-30 13:03 | 41.63487 | 16.97549 | 20132 ft | 350 kts | 8° |
| 2026-04-30 13:03 | 41.65833 | 16.98433 | 20132 ft | 350 kts | 8° |
| 2026-04-30 13:04 | 41.68148 | 16.99312 | 20134 ft | 351 kts | 8° |
| 2026-04-30 13:04 | 41.70495 | 17.00206 | 20132 ft | 351 kts | 8° |
| 2026-04-30 13:04 | 41.72821 | 17.01260 | 20114 ft | 360 kts | 20° |
| 2026-04-30 13:04 | 41.74864 | 17.03288 | 20177 ft | 370 kts | 34° |
| 2026-04-30 13:05 | 41.76785 | 17.05594 | 20133 ft | 372 kts | 35° |
| 2026-04-30 13:05 | 41.78700 | 17.07924 | 20136 ft | 372 kts | 35° |
| 2026-04-30 13:05 | 41.80624 | 17.10256 | 20131 ft | 372 kts | 35° |
| 2026-04-30 13:06 | 41.84486 | 17.14886 | 20128 ft | 372 kts | 34° |
| 2026-04-30 13:06 | 41.86422 | 17.17193 | 20129 ft | 372 kts | 34° |
| 2026-04-30 13:06 | 41.88359 | 17.19498 | 20131 ft | 372 kts | 34° |
| 2026-04-30 13:06 | 41.90296 | 17.21804 | 20130 ft | 372 kts | 34° |
| 2026-04-30 13:07 | 41.92231 | 17.24111 | 20147 ft | 372 kts | 34° |
| 2026-04-30 13:07 | 41.94179 | 17.26401 | 20137 ft | 371 kts | 33° |
| 2026-04-30 13:07 | 41.96142 | 17.28636 | 20132 ft | 370 kts | 33° |
| 2026-04-30 13:07 | 41.98117 | 17.30859 | 20124 ft | 370 kts | 32° |
| 2026-04-30 13:08 | 42.00087 | 17.33074 | 20123 ft | 369 kts | 33° |
| 2026-04-30 13:08 | 42.02046 | 17.35284 | 19927 ft | 367 kts | 33° |
| 2026-04-30 13:08 | 42.03984 | 17.37477 | 19676 ft | 361 kts | 33° |
| 2026-04-30 13:08 | 42.05891 | 17.39643 | 19433 ft | 355 kts | 33° |
| 2026-04-30 13:09 | 42.07765 | 17.41774 | 19189 ft | 350 kts | 33° |
| 2026-04-30 13:09 | 42.09611 | 17.43876 | 18969 ft | 345 kts | 33° |
| 2026-04-30 13:09 | 42.11432 | 17.45949 | 18730 ft | 340 kts | 33° |
| 2026-04-30 13:09 | 42.13233 | 17.47990 | 18491 ft | 336 kts | 32° |
| 2026-04-30 13:10 | 42.15014 | 17.50010 | 18231 ft | 333 kts | 32° |
| 2026-04-30 13:10 | 42.16779 | 17.52012 | 17961 ft | 330 kts | 32° |
| 2026-04-30 13:10 | 42.18527 | 17.54002 | 17693 ft | 328 kts | 33° |
| 2026-04-30 13:10 | 42.20235 | 17.55952 | 17432 ft | 325 kts | 33° |
| 2026-04-30 13:11 | 42.21952 | 17.57917 | 17166 ft | 323 kts | 33° |
| 2026-04-30 13:11 | 42.23659 | 17.59873 | 16907 ft | 320 kts | 33° |
| 2026-04-30 13:11 | 42.25351 | 17.61812 | 16644 ft | 318 kts | 33° |
| 2026-04-30 13:11 | 42.27028 | 17.63751 | 16403 ft | 317 kts | 35° |
| 2026-04-30 13:12 | 42.28692 | 17.65681 | 16158 ft | 314 kts | 35° |
| 2026-04-30 13:12 | 42.30350 | 17.67591 | 15905 ft | 312 kts | 35° |
| 2026-04-30 13:12 | 42.32001 | 17.69487 | 15652 ft | 311 kts | 35° |
| 2026-04-30 13:13 | 42.35262 | 17.73236 | 15196 ft | 303 kts | 35° |
| 2026-04-30 13:13 | 42.36863 | 17.75079 | 14907 ft | 301 kts | 36° |
| 2026-04-30 13:13 | 42.40040 | 17.78740 | 14310 ft | 299 kts | 36° |
| 2026-04-30 13:14 | 42.41618 | 17.80560 | 14017 ft | 297 kts | 36° |
| 2026-04-30 13:14 | 42.43191 | 17.82376 | 13694 ft | 296 kts | 37° |
| 2026-04-30 13:14 | 42.46325 | 17.85922 | 13063 ft | 291 kts | 30° |
| 2026-04-30 13:15 | 42.48071 | 17.87261 | 12739 ft | 287 kts | 23° |
| 2026-04-30 13:15 | 42.51625 | 17.89691 | 12046 ft | 286 kts | 24° |
| 2026-04-30 13:15 | 42.53441 | 17.90711 | 11715 ft | 280 kts | 7° |
| 2026-04-30 13:16 | 42.55346 | 17.90618 | 11468 ft | 272 kts | 343° |
| 2026-04-30 13:16 | 42.57013 | 17.89546 | 11182 ft | 269 kts | 324° |
| 2026-04-30 13:16 | 42.58330 | 17.87729 | 10883 ft | 269 kts | 304° |
| 2026-04-30 13:17 | 42.60086 | 17.83317 | 10309 ft | 267 kts | 300° |
| 2026-04-30 13:17 | 42.60945 | 17.81092 | 10021 ft | 266 kts | 300° |
| 2026-04-30 13:17 | 42.62386 | 17.77381 | 9542 ft | 263 kts | 300° |
| 2026-04-30 13:18 | 42.63516 | 17.74480 | 9154 ft | 261 kts | 300° |
| 2026-04-30 13:18 | 42.65201 | 17.70160 | 8617 ft | 257 kts | 301° |
| 2026-04-30 13:18 | 42.66159 | 17.68151 | 8333 ft | 251 kts | 320° |
| 2026-04-30 13:19 | 42.67633 | 17.67032 | 8127 ft | 241 kts | 348° |
| 2026-04-30 13:19 | 42.69283 | 17.66901 | 7965 ft | 238 kts | 8° |
| 2026-04-30 13:19 | 42.70869 | 17.67602 | 7717 ft | 244 kts | 25° |
| 2026-04-30 13:19 | 42.72399 | 17.68675 | 7470 ft | 252 kts | 27° |
| 2026-04-30 13:20 | 42.73963 | 17.69824 | 7148 ft | 257 kts | 29° |
| 2026-04-30 13:20 | 42.75317 | 17.71377 | 6834 ft | 258 kts | 54° |
| 2026-04-30 13:20 | 42.75997 | 17.73617 | 6584 ft | 259 kts | 78° |
| 2026-04-30 13:20 | 42.75963 | 17.76070 | 6292 ft | 263 kts | 101° |
| 2026-04-30 13:21 | 42.75248 | 17.78375 | 6015 ft | 265 kts | 115° |
| 2026-04-30 13:21 | 42.74372 | 17.80572 | 5717 ft | 264 kts | 115° |
| 2026-04-30 13:21 | 42.73501 | 17.82754 | 5453 ft | 261 kts | 115° |
| 2026-04-30 13:22 | 42.71791 | 17.87092 | 4929 ft | 257 kts | 114° |
| 2026-04-30 13:22 | 42.70959 | 17.89213 | 4732 ft | 252 kts | 115° |
| 2026-04-30 13:22 | 42.69345 | 17.93408 | 4369 ft | 247 kts | 114° |
| 2026-04-30 13:23 | 42.68561 | 17.95467 | 4218 ft | 244 kts | 114° |
| 2026-04-30 13:23 | 42.67239 | 17.98815 | 3909 ft | 239 kts | 115° |
| 2026-04-30 13:24 | 42.65690 | 18.02708 | 3522 ft | 229 kts | 114° |
| 2026-04-30 13:24 | 42.64242 | 18.06348 | 3164 ft | 207 kts | 114° |
| 2026-04-30 13:25 | 42.62941 | 18.09626 | 2826 ft | 190 kts | 114° |
| 2026-04-30 13:25 | 42.61744 | 18.12645 | 2494 ft | 176 kts | 114° |
| 2026-04-30 13:26 | 42.60065 | 18.16884 | 1821 ft | 166 kts | 113° |
| 2026-04-30 13:26 | 42.59023 | 18.19512 | 1423 ft | 151 kts | 112° |
| 2026-04-30 13:27 | 42.58038 | 18.22005 | 1014 ft | 149 kts | 112° |
| 2026-04-30 13:28 | 42.56585 | 18.25732 | 535 ft | 136 kts | 112° |
| 2026-04-30 13:28 | 42.56064 | 18.27041 | 533 ft | 45 kts | 118° |
| 2026-04-30 13:28 | 42.55949 | 18.27306 | 531 ft | 13 kts | 139° |
| 2026-04-30 13:29 | 42.55776 | 18.27339 | 533 ft | 11 kts | 213° |
| 2026-04-30 13:29 | 42.55825 | 18.27142 | 533 ft | 13 kts | 298° |
| 2026-04-30 13:30 | 42.55980 | 18.26748 | 533 ft | 18 kts | 299° |
| 2026-04-30 13:31 | 42.56087 | 18.26476 | 533 ft | 10 kts | 298° |
| 2026-04-30 13:31 | 42.56055 | 18.26404 | 533 ft | 0 kts | 207° |